Map

Track Data

SID SEASON NUMBER BASIN SUBBASIN NAME ISO_TIME NATURE LAT LON WMO_WIND WMO_PRES WMO_AGENCY TRACK_TYPE DIST2LAND LANDFALL IFLAG USA_AGENCY USA_ATCF_ID USA_LAT USA_LON USA_RECORD USA_STATUS USA_WIND USA_PRES USA_SSHS USA_R34_NE USA_R34_SE USA_R34_SW USA_R34_NW USA_R50_NE USA_R50_SE USA_R50_SW USA_R50_NW USA_R64_NE USA_R64_SE USA_R64_SW USA_R64_NW USA_POCI USA_ROCI USA_RMW USA_EYE TOKYO_LAT TOKYO_LON TOKYO_GRADE TOKYO_WIND TOKYO_PRES TOKYO_R50_DIR TOKYO_R50_LONG TOKYO_R50_SHORT TOKYO_R30_DIR TOKYO_R30_LONG TOKYO_R30_SHORT TOKYO_LAND CMA_LAT CMA_LON CMA_CAT CMA_WIND CMA_PRES HKO_LAT HKO_LON HKO_CAT HKO_WIND HKO_PRES NEWDELHI_LAT NEWDELHI_LON NEWDELHI_GRADE NEWDELHI_WIND NEWDELHI_PRES NEWDELHI_CI NEWDELHI_DP NEWDELHI_POCI REUNION_LAT REUNION_LON REUNION_TYPE REUNION_WIND REUNION_PRES REUNION_TNUM REUNION_CI REUNION_RMW REUNION_R34_NE REUNION_R34_SE REUNION_R34_SW REUNION_R34_NW REUNION_R50_NE REUNION_R50_SE REUNION_R50_SW REUNION_R50_NW REUNION_R64_NE REUNION_R64_SE REUNION_R64_SW REUNION_R64_NW BOM_LAT BOM_LON BOM_TYPE BOM_WIND BOM_PRES BOM_TNUM BOM_CI BOM_RMW BOM_R34_NE BOM_R34_SE BOM_R34_SW BOM_R34_NW BOM_R50_NE BOM_R50_SE BOM_R50_SW BOM_R50_NW BOM_R64_NE BOM_R64_SE BOM_R64_SW BOM_R64_NW BOM_ROCI BOM_POCI BOM_EYE BOM_POS_METHOD BOM_PRES_METHOD NADI_LAT NADI_LON NADI_CAT NADI_WIND NADI_PRES WELLINGTON_LAT WELLINGTON_LON WELLINGTON_WIND WELLINGTON_PRES DS824_LAT DS824_LON DS824_STAGE DS824_WIND DS824_PRES TD9636_LAT TD9636_LON TD9636_STAGE TD9636_WIND TD9636_PRES TD9635_LAT TD9635_LON TD9635_WIND TD9635_PRES TD9635_ROCI NEUMANN_LAT NEUMANN_LON NEUMANN_CLASS NEUMANN_WIND NEUMANN_PRES MLC_LAT MLC_LON MLC_CLASS MLC_WIND MLC_PRES USA_GUST BOM_GUST BOM_GUST_PER REUNION_GUST REUNION_GUST_PER USA_SEAHGT USA_SEARAD_NE USA_SEARAD_SE USA_SEARAD_SW USA_SEARAD_NW STORM_SPEED STORM_DIR
1928318N08091 1928 65 NI BB NOT_NAMED 1928-11-13 00:00:00 TS 8.40000 91.3000 main 532 532 _________O____ -1 8.40000 91.3000 TC 30 5 293
1928318N08091 1928 65 NI BB NOT_NAMED 1928-11-13 03:00:00 TS 8.50005 91.0601 main 557 557 _________PO___ -1 8.55008 90.9401 TC 30 8.40000 91.3000 1 6 294
1928318N08091 1928 65 NI BB NOT_NAMED 1928-11-13 06:00:00 TS 8.64704 90.7397 main 599 599 _________OP___ -1 8.70000 90.6000 TC 30 8.56760 90.9491 1 7 295
1928318N08091 1928 65 NI BB NOT_NAMED 1928-11-13 09:00:00 TS 8.79770 90.4279 main 639 639 _________PP___ -1 8.84996 90.2925 TC 30 8.72803 90.6085 1 7 296
1928318N08091 1928 65 NI BB NOT_NAMED 1928-11-13 12:00:00 TS 8.93722 90.1443 main 673 673 _________OP___ -1 9.00000 90.0000 TC 30 8.87444 90.2885 1 6 296
1928318N08091 1928 65 NI BB NOT_NAMED 1928-11-13 15:00:00 TS 9.07124 89.8500 main 713 713 _________PO___ -1 9.14248 89.7000 TC 30 9.00000 90.0000 1 6 295
1928318N08091 1928 65 NI BB NOT_NAMED 1928-11-13 18:00:00 TS 9.20321 89.5723 main 737 737 _________OP___ -1 9.30000 89.4000 TC 30 9.10641 89.7446 1 6 297
1928318N08091 1928 65 NI BB NOT_NAMED 1928-11-13 21:00:00 TS 9.33827 89.3202 main 771 771 _________PP___ -1 9.44729 89.1521 TC 30 9.22926 89.4883 1 7 302
1928318N08091 1928 65 NI BB NOT_NAMED 1928-11-14 00:00:00 TS 9.55625 88.9940 main 817 780 _________OP___ -1 9.70000 88.8000 TC 30 9.41250 89.1879 1 10 306
1928318N08091 1928 65 NI BB NOT_NAMED 1928-11-14 03:00:00 TS 9.92009 88.4976 main 780 740 _________PO___ -1 10.1402 88.1951 TC 30 9.70000 88.8000 1 14 308
1928318N08091 1928 65 NI BB NOT_NAMED 1928-11-14 06:00:00 TS 10.4134 87.8644 main 740 704 _________OP___ -1 10.7000 87.5000 TC 30 10.1269 88.2287 1 16 310
1928318N08091 1928 65 NI BB NOT_NAMED 1928-11-14 09:00:00 TS 10.9719 87.2218 main 699 667 _________PP___ -1 11.2850 86.8700 TC 30 10.6589 87.5737 1 17 313
1928318N08091 1928 65 NI BB NOT_NAMED 1928-11-14 12:00:00 TS 11.5807 86.6034 main 673 640 _________OP___ -1 11.9000 86.3000 TC 30 11.2614 86.9067 1 17 317
1928318N08091 1928 65 NI BB NOT_NAMED 1928-11-14 15:00:00 TS 12.1924 86.0524 main 640 554 _________PO___ -1 12.4849 85.8048 TC 33 11.9000 86.3000 1 16 322
1928318N08091 1928 65 NI BB NOT_NAMED 1928-11-14 18:00:00 TS 12.8388 85.5984 main 554 466 _________OP___ -1 13.1000 85.4000 TC 37 12.5776 85.7968 1 16 329
1928318N08091 1928 65 NI BB NOT_NAMED 1928-11-14 21:00:00 TS 13.5597 85.2055 main 457 387 _________PP___ -1 13.8449 85.0402 TC 41 13.2744 85.3709 1 15 334
1928318N08091 1928 65 NI BB NOT_NAMED 1928-11-15 00:00:00 TS 14.2170 84.9172 main 387 341 _________OP___ -1 14.5000 84.8000 TC 45 13.9341 85.0344 1 12 339
1928318N08091 1928 65 NI BB NOT_NAMED 1928-11-15 03:00:00 TS 14.6800 84.7523 main 341 313 _________PO___ -1 14.8599 84.7047 TC 45 14.5000 84.8000 3 8 344
1928318N08091 1928 65 NI BB NOT_NAMED 1928-11-15 06:00:00 TS 15.0062 84.6805 main 313 295 _________OP___ -1 15.1000 84.7000 TC 45 14.9123 84.6610 3 6 352
1928318N08091 1928 65 NI BB NOT_NAMED 1928-11-15 09:00:00 TS 15.3172 84.6531 main 295 275 _________PP___ -1 15.4075 84.6850 TC 45 15.2269 84.6211 3 6 0
1928318N08091 1928 65 NI BB NOT_NAMED 1928-11-15 12:00:00 TS 15.5891 84.6729 main 275 257 _________OP___ -1 15.7000 84.7000 TC 45 15.4781 84.6458 3 5 8
1928318N08091 1928 65 NI BB NOT_NAMED 1928-11-15 15:00:00 TS 15.8325 84.7212 main 257 239 _________PO___ -1 15.9650 84.7425 TC 45 15.7000 84.7000 3 5 10
1928318N08091 1928 65 NI BB NOT_NAMED 1928-11-15 18:00:00 TS 16.0794 84.7601 main 239 223 _________OP___ -1 16.2000 84.8000 TC 45 15.9587 84.7202 3 5 10
1928318N08091 1928 65 NI BB NOT_NAMED 1928-11-15 21:00:00 TS 16.3050 84.8025 main 223 208 _________PP___ -1 16.4150 84.8425 TC 45 16.1950 84.7624 3 4 12
1928318N08091 1928 65 NI BB NOT_NAMED 1928-11-16 00:00:00 TS 16.5044 84.8617 main 215 198 _________OP___ -1 16.6000 84.9000 TC 45 16.4087 84.8234 3 4 20
1928318N08091 1928 65 NI BB NOT_NAMED 1928-11-16 03:00:00 TS 16.6788 84.9463 main 198 193 _________PO___ -1 16.7575 84.9925 TC 45 16.6000 84.9000 3 4 27
1928318N08091 1928 65 NI BB NOT_NAMED 1928-11-16 06:00:00 TS 16.8398 85.0408 main 193 179 _________OP___ -1 16.9000 85.1000 TC 45 16.7797 84.9816 3 4 30
1928318N08091 1928 65 NI BB NOT_NAMED 1928-11-16 09:00:00 TS 16.9975 85.1388 main 179 177 _________PP___ -1 17.0575 85.2000 TC 45 16.9375 85.0775 3 4 33
1928318N08091 1928 65 NI BB NOT_NAMED 1928-11-16 12:00:00 TS 17.1383 85.2424 main 177 176 _________OP___ -1 17.2000 85.3000 TC 45 17.0765 85.1847 3 3 38
1928318N08091 1928 65 NI BB NOT_NAMED 1928-11-16 15:00:00 TS 17.2537 85.3463 main 169 169 _________PO___ -1 17.3075 85.3925 TC 45 17.2000 85.3000 3 3 43
1928318N08091 1928 65 NI BB NOT_NAMED 1928-11-16 18:00:00 TS 17.3572 85.4529 main 176 176 _________OP___ -1 17.4000 85.5000 TC 45 17.3143 85.4057 3 3 47
1928318N08091 1928 65 NI BB NOT_NAMED 1928-11-16 21:00:00 TS 17.4574 85.5776 main 176 176 _________PP___ -1 17.5000 85.6350 TC 45 17.4149 85.5202 3 3 53
1928318N08091 1928 65 NI BB NOT_NAMED 1928-11-17 00:00:00 TS 17.5540 85.7247 main 176 176 _________OP___ -1 17.6000 85.8000 TC 45 17.5080 85.6495 3 4 58
1928318N08091 1928 65 NI BB NOT_NAMED 1928-11-17 03:00:00 TS 17.6500 85.8963 main 184 184 _________PO___ -1 17.7000 85.9925 TC 45 17.6000 85.8000 3 4 61
1928318N08091 1928 65 NI BB NOT_NAMED 1928-11-17 06:00:00 TS 17.7521 86.0933 main 193 193 _________OP___ -1 17.8000 86.2000 TC 45 17.7041 85.9865 3 4 62
1928318N08091 1928 65 NI BB NOT_NAMED 1928-11-17 09:00:00 TS 17.8576 86.3000 main 205 205 _________PP___ -1 17.9075 86.4075 TC 45 17.8076 86.1924 3 4 63
1928318N08091 1928 65 NI BB NOT_NAMED 1928-11-17 12:00:00 TS 17.9536 86.5011 main 213 213 _________OP___ -1 18.0000 86.6000 TC 45 17.9073 86.4021 3 4 65
1928318N08091 1928 65 NI BB NOT_NAMED 1928-11-17 15:00:00 TS 18.0250 86.6788 main 221 211 _________PO___ -1 18.0500 86.7576 TC 41 18.0000 86.6000 3 3 66
1928318N08091 1928 65 NI BB NOT_NAMED 1928-11-17 18:00:00 TS 18.0907 86.8280 main 214 207 _________OP___ -1 18.1000 86.9000 TC 37 18.0837 86.7741 3 3 63
1928318N08091 1928 65 NI BB NOT_NAMED 1928-11-17 21:00:00 TS 18.1710 86.9755 main 210 203 _________PP___ -1 18.1875 87.0474 TC 33 18.1600 86.9275 3 3 59
1928318N08091 1928 65 NI BB NOT_NAMED 1928-11-18 00:00:00 TS 18.2542 87.1115 main 203 203 _________OP___ -1 18.3000 87.2000 TC 30 18.2312 87.0672 3 2 59
1928318N08091 1928 65 NI BB NOT_NAMED 1928-11-18 03:00:00 NR 18.3000 87.2000 main 207 __________O___ -1 TC 18.3000 87.2000 1 2 62

About IBTrACS Database

This database is a web-friendly format of International Best Track Archive for Climate Stewardship (IBTrACS), a global best track data archive curated by NOAA dating back to 1842.

Updated: 2021-11-26